createdAt,value
2023-03-30T00:00:19.357Z,9.02
2023-03-30T00:02:47.356Z,8.99
2023-03-30T00:05:14.204Z,8.99
2023-03-30T00:07:44.863Z,8.97
2023-03-30T00:10:14.550Z,8.96
2023-03-30T00:12:43.529Z,8.94
2023-03-30T00:15:17.475Z,8.90
2023-03-30T00:17:44.556Z,8.90
2023-03-30T00:20:13.015Z,8.93
2023-03-30T00:22:42.989Z,8.95
2023-03-30T00:25:11.918Z,8.96
2023-03-30T00:27:39.399Z,8.95
2023-03-30T00:30:08.748Z,8.93
2023-03-30T00:32:35.793Z,8.92
2023-03-30T00:35:02.691Z,8.91
2023-03-30T00:37:29.792Z,8.85
2023-03-30T00:39:56.694Z,8.76
2023-03-30T00:42:23.896Z,8.70
2023-03-30T00:45:06.516Z,8.66
2023-03-30T00:47:37.935Z,8.64
2023-03-30T00:50:06.118Z,8.61
2023-03-30T00:52:33.266Z,8.58
2023-03-30T00:54:59.931Z,8.55
2023-03-30T00:57:27.073Z,8.53
2023-03-30T00:59:55.032Z,8.51
2023-03-30T01:02:21.734Z,8.51
2023-03-30T01:04:53.129Z,8.47
2023-03-30T01:07:24.192Z,8.45
2023-03-30T01:09:52.986Z,8.41
2023-03-30T01:12:20.339Z,8.38
2023-03-30T01:14:48.217Z,8.38
2023-03-30T01:17:57.986Z,8.38
2023-03-30T01:20:33.657Z,8.35
2023-03-30T01:23:27.972Z,8.35
2023-03-30T01:26:33.436Z,8.30
2023-03-30T01:29:20.220Z,8.30
2023-03-30T01:32:25.924Z,8.30
2023-03-30T01:35:17.299Z,8.29
2023-03-30T01:38:08.017Z,8.29
2023-03-30T01:40:43.403Z,8.41
2023-03-30T01:43:39.554Z,8.44
2023-03-30T01:46:18.947Z,8.43
2023-03-30T01:48:56.032Z,8.43
2023-03-30T01:51:29.523Z,8.44
2023-03-30T01:57:55.520Z,8.53
2023-03-30T02:00:24.269Z,8.56
2023-03-30T02:03:17.116Z,8.57
2023-03-30T02:05:47.155Z,8.56
2023-03-30T02:08:18.708Z,8.57
2023-03-30T02:10:47.951Z,8.59
2023-03-30T02:13:16.501Z,8.57
2023-03-30T02:15:50.339Z,8.53
2023-03-30T02:18:17.172Z,8.50
2023-03-30T02:20:43.809Z,8.45
2023-03-30T02:23:11.467Z,8.38
2023-03-30T02:25:39.323Z,8.35
2023-03-30T02:28:08.421Z,8.37
2023-03-30T02:30:38.678Z,8.36
2023-03-30T02:33:07.520Z,8.38
2023-03-30T02:35:51.503Z,8.37
2023-03-30T02:38:30.776Z,8.37
2023-03-30T02:41:35.881Z,8.33
2023-03-30T02:44:05.536Z,8.33
2023-03-30T02:46:37.946Z,8.31
2023-03-30T02:49:34.193Z,8.31
2023-03-30T02:52:39.411Z,8.31
2023-03-30T02:55:22.315Z,8.29
2023-03-30T02:58:03.025Z,8.26
2023-03-30T03:00:38.826Z,8.27
2023-03-30T03:03:14.865Z,8.21
2023-03-30T03:05:43.144Z,8.17
2023-03-30T03:08:12.658Z,8.15
2023-03-30T03:10:39.117Z,8.09
2023-03-30T03:13:05.643Z,8.03
2023-03-30T03:15:32.158Z,7.95
2023-03-30T03:17:58.749Z,7.91
2023-03-30T03:20:30.330Z,7.84
2023-03-30T03:22:56.906Z,7.78
2023-03-30T03:25:23.388Z,7.77
2023-03-30T03:27:49.871Z,7.78
2023-03-30T03:30:16.444Z,7.78
2023-03-30T03:32:43.005Z,7.78
2023-03-30T03:35:09.619Z,7.76
2023-03-30T03:37:36.292Z,7.78
2023-03-30T03:40:05.425Z,7.78
2023-03-30T03:42:31.924Z,7.77
2023-03-30T03:44:58.434Z,7.74
2023-03-30T03:47:25.019Z,7.74
2023-03-30T03:49:51.607Z,7.75
2023-03-30T03:52:18.126Z,7.75
2023-03-30T03:54:44.659Z,7.74
2023-03-30T03:57:11.174Z,7.74
2023-03-30T03:59:37.757Z,7.75
2023-03-30T04:02:05.540Z,7.75
2023-03-30T04:04:32.334Z,7.72
2023-03-30T04:06:58.880Z,7.65
2023-03-30T04:09:26.017Z,7.65
2023-03-30T04:11:52.497Z,7.70
2023-03-30T04:14:19.026Z,7.72
2023-03-30T04:16:45.557Z,7.79
2023-03-30T04:19:12.669Z,7.83
2023-03-30T04:21:41.150Z,7.85
2023-03-30T04:24:12.152Z,7.86
2023-03-30T04:26:41.528Z,7.88
2023-03-30T04:29:08.916Z,7.91
2023-03-30T04:31:35.954Z,7.97
2023-03-30T04:34:02.719Z,8.00
2023-03-30T04:36:29.415Z,8.02
2023-03-30T04:38:59.784Z,8.03
2023-03-30T04:41:36.014Z,8.17
2023-03-30T04:44:04.184Z,8.45
2023-03-30T04:46:31.208Z,8.71
2023-03-30T04:48:57.901Z,8.94
2023-03-30T04:51:24.406Z,8.97
2023-03-30T04:53:51.014Z,8.95
2023-03-30T04:56:17.832Z,8.92
2023-03-30T04:58:44.438Z,8.89
2023-03-30T05:01:10.965Z,8.89
2023-03-30T05:03:37.657Z,8.88
2023-03-30T05:06:04.801Z,8.92
2023-03-30T05:08:33.341Z,8.96
2023-03-30T05:11:05.199Z,9.03
2023-03-30T05:13:32.012Z,9.11
2023-03-30T05:15:58.614Z,9.19
2023-03-30T05:18:25.191Z,9.42
2023-03-30T05:20:51.738Z,9.63
2023-03-30T05:23:18.274Z,9.87
2023-03-30T05:25:46.617Z,9.88
2023-03-30T05:28:13.205Z,9.88
2023-03-30T05:30:39.724Z,9.92
2023-03-30T05:33:09.644Z,9.93
2023-03-30T05:35:39.463Z,10.05
2023-03-30T05:38:07.400Z,10.12
2023-03-30T05:40:34.129Z,10.14
2023-03-30T05:43:00.989Z,10.15
2023-03-30T05:45:27.486Z,10.16
2023-03-30T05:47:54.649Z,10.09
2023-03-30T05:50:22.256Z,10.13
2023-03-30T05:52:49.352Z,10.16
2023-03-30T05:55:16.473Z,10.09
2023-03-30T05:57:43.113Z,10.05
2023-03-30T06:00:11.321Z,10.01
2023-03-30T06:02:37.916Z,9.95
2023-03-30T06:05:04.837Z,9.93
2023-03-30T06:07:31.511Z,9.91
2023-03-30T06:09:59.689Z,10.04
2023-03-30T06:12:26.620Z,10.20
2023-03-30T06:14:53.185Z,10.38
2023-03-30T06:17:19.772Z,10.43
2023-03-30T06:19:46.330Z,10.35
2023-03-30T06:22:12.881Z,10.36
2023-03-30T06:24:39.418Z,10.28
2023-03-30T06:27:05.934Z,10.32
2023-03-30T06:29:32.686Z,10.29
2023-03-30T06:31:59.393Z,10.29
2023-03-30T06:34:26.075Z,10.32
2023-03-30T06:36:53.876Z,10.27
2023-03-30T06:39:22.155Z,10.25
2023-03-30T06:41:48.865Z,10.24
2023-03-30T06:44:15.460Z,10.23
2023-03-30T06:46:42.502Z,10.15
2023-03-30T06:49:12.092Z,10.16
2023-03-30T06:51:38.917Z,10.14
2023-03-30T06:54:05.608Z,10.15
2023-03-30T06:56:32.102Z,10.14
2023-03-30T06:58:58.899Z,10.12
2023-03-30T07:01:25.470Z,10.06
2023-03-30T07:03:53.472Z,10.11
2023-03-30T07:06:21.149Z,10.11
2023-03-30T07:08:48.310Z,10.15
2023-03-30T07:11:14.971Z,10.11
2023-03-30T07:13:41.537Z,10.20
2023-03-30T07:16:08.484Z,10.25
2023-03-30T07:18:35.310Z,10.28
2023-03-30T07:21:02.141Z,10.28
2023-03-30T07:23:28.988Z,10.25
2023-03-30T07:25:55.590Z,10.22
2023-03-30T07:28:22.360Z,10.23
2023-03-30T07:30:48.957Z,10.26
2023-03-30T07:33:15.810Z,10.16
2023-03-30T07:35:46.529Z,10.11
2023-03-30T07:38:14.382Z,10.13
2023-03-30T07:40:41.258Z,10.12
2023-03-30T07:43:07.808Z,10.25
2023-03-30T07:45:34.494Z,10.16
2023-03-30T07:48:01.186Z,10.13
2023-03-30T07:50:28.076Z,10.24
2023-03-30T07:52:54.563Z,10.19
2023-03-30T07:55:21.230Z,10.24
2023-03-30T07:57:47.835Z,10.30
2023-03-30T08:00:14.854Z,10.30
2023-03-30T08:02:42.473Z,10.32
2023-03-30T08:05:09.632Z,10.33
2023-03-30T08:07:36.937Z,10.39
2023-03-30T08:10:04.107Z,10.49
2023-03-30T08:12:30.676Z,10.37
2023-03-30T08:14:57.203Z,10.41
2023-03-30T08:17:23.880Z,10.55
2023-03-30T08:19:50.474Z,10.52
2023-03-30T08:22:16.997Z,10.84
2023-03-30T08:24:43.580Z,11.17
2023-03-30T08:27:10.192Z,11.36
2023-03-30T08:29:36.882Z,11.56
2023-03-30T08:32:03.529Z,11.63
2023-03-30T08:34:30.258Z,11.85
2023-03-30T08:36:58.068Z,12.21
2023-03-30T08:39:24.861Z,12.39
2023-03-30T08:42:25.298Z,12.46
2023-03-30T08:44:57.225Z,12.48
2023-03-30T08:47:34.921Z,13.00
2023-03-30T08:50:11.468Z,12.90
2023-03-30T08:52:38.241Z,12.94
2023-03-30T08:55:05.145Z,13.03
2023-03-30T08:57:52.599Z,13.07
2023-03-30T09:00:41.711Z,12.86
2023-03-30T09:03:19.164Z,12.70
2023-03-30T09:05:57.177Z,12.91
2023-03-30T09:08:29.108Z,13.03
2023-03-30T09:11:01.183Z,13.47
2023-03-30T09:13:34.328Z,13.86
2023-03-30T09:16:16.423Z,14.25
2023-03-30T09:18:46.451Z,14.27
2023-03-30T09:21:13.431Z,14.54
2023-03-30T09:23:40.808Z,14.61
2023-03-30T09:26:31.673Z,14.74
2023-03-30T09:29:06.330Z,14.56
2023-03-30T09:32:01.936Z,14.85
2023-03-30T09:34:44.286Z,14.69
2023-03-30T09:37:13.469Z,14.41
2023-03-30T09:39:41.431Z,14.28
2023-03-30T09:42:13.733Z,14.13
2023-03-30T09:45:25.343Z,13.98
2023-03-30T09:47:52.533Z,13.81
2023-03-30T09:50:26.798Z,13.69
2023-03-30T09:52:59.980Z,13.62
2023-03-30T09:55:29.912Z,13.43
2023-03-30T09:58:13.469Z,13.46
2023-03-30T10:00:40.729Z,13.53
2023-03-30T10:03:08.509Z,13.57
2023-03-30T10:05:37.609Z,13.64
2023-03-30T10:08:17.388Z,13.83
2023-03-30T10:10:43.954Z,13.82
2023-03-30T10:13:16.251Z,13.80
2023-03-30T10:15:46.142Z,13.85
2023-03-30T10:18:27.499Z,13.50
2023-03-30T10:21:02.686Z,13.55
2023-03-30T10:23:40.036Z,13.64
2023-03-30T10:26:15.429Z,14.32
2023-03-30T10:28:55.358Z,14.92
2023-03-30T10:31:25.657Z,15.34
2023-03-30T10:33:57.822Z,15.25
2023-03-30T10:36:30.780Z,15.37
2023-03-30T10:39:23.901Z,15.51
2023-03-30T10:41:51.764Z,15.62
2023-03-30T10:44:24.869Z,15.47
2023-03-30T10:46:55.414Z,15.64
2023-03-30T10:49:42.609Z,15.80
2023-03-30T10:52:14.867Z,15.25
2023-03-30T10:54:55.551Z,15.27
2023-03-30T10:57:30.369Z,15.27
2023-03-30T11:00:12.959Z,15.33
2023-03-30T11:03:09.470Z,15.06
2023-03-30T11:05:41.291Z,15.43
2023-03-30T11:08:13.050Z,16.50
2023-03-30T11:10:53.205Z,17.05
2023-03-30T11:13:29.112Z,17.15
2023-03-30T11:16:04.354Z,16.50
2023-03-30T11:18:53.233Z,16.30
2023-03-30T11:21:42.479Z,16.28
2023-03-30T11:24:17.407Z,16.40
2023-03-30T11:26:49.714Z,16.33
2023-03-30T11:29:34.595Z,16.37
2023-03-30T11:32:26.104Z,16.39
2023-03-30T11:35:14.482Z,16.93
2023-03-30T11:38:01.333Z,17.39
2023-03-30T11:40:35.906Z,17.69
2023-03-30T11:43:02.387Z,17.88
2023-03-30T11:45:48.377Z,18.06
2023-03-30T11:48:28.679Z,17.99
2023-03-30T11:51:13.550Z,18.12
2023-03-30T11:54:04.881Z,18.37
2023-03-30T11:56:39.984Z,18.22
2023-03-30T11:59:15.509Z,17.65
2023-03-30T12:02:02.798Z,17.32
2023-03-30T12:04:47.001Z,17.35
2023-03-30T12:07:30.348Z,17.65
2023-03-30T12:10:04.096Z,18.55
2023-03-30T12:12:36.427Z,19.16
2023-03-30T12:15:15.868Z,19.45
2023-03-30T12:18:03.485Z,19.75
2023-03-30T12:20:33.746Z,19.03
2023-03-30T12:23:14.962Z,18.94
2023-03-30T12:25:57.791Z,18.47
2023-03-30T12:28:32.406Z,17.77
2023-03-30T12:31:11.012Z,17.54
2023-03-30T12:33:51.627Z,17.08
2023-03-30T12:36:40.907Z,16.32
2023-03-30T12:39:31.335Z,15.82
2023-03-30T12:42:07.206Z,15.29
2023-03-30T12:45:15.105Z,14.83
2023-03-30T12:48:02.889Z,14.81
2023-03-30T12:50:47.716Z,14.56
2023-03-30T12:53:36.037Z,14.52
2023-03-30T12:56:12.159Z,14.40
2023-03-30T12:58:57.180Z,14.29
2023-03-30T13:01:37.881Z,14.08
2023-03-30T13:04:17.953Z,13.81
2023-03-30T13:07:04.848Z,13.63
2023-03-30T13:09:34.530Z,13.55
2023-03-30T13:12:01.368Z,13.30
2023-03-30T13:14:43.608Z,13.22
2023-03-30T13:17:19.518Z,13.13
2023-03-30T13:20:29.927Z,12.96
2023-03-30T13:23:27.289Z,12.80
2023-03-30T13:26:34.501Z,12.71
2023-03-30T13:29:11.597Z,12.64
2023-03-30T13:32:02.867Z,12.47
2023-03-30T13:35:05.372Z,12.40
2023-03-30T13:37:54.034Z,12.31
2023-03-30T13:40:39.704Z,12.29
2023-03-30T13:43:26.981Z,12.17
2023-03-30T13:46:16.504Z,12.05
2023-03-30T13:49:17.462Z,11.93
2023-03-30T13:51:45.987Z,11.75
2023-03-30T13:54:29.339Z,11.66
2023-03-30T13:57:03.942Z,11.61
2023-03-30T13:59:33.384Z,11.55
2023-03-30T14:02:01.990Z,11.56
2023-03-30T14:04:30.801Z,11.49
2023-03-30T14:06:58.504Z,11.46
2023-03-30T14:09:28.345Z,11.43
2023-03-30T14:12:02.488Z,11.39
2023-03-30T14:14:29.739Z,11.35
2023-03-30T14:16:58.720Z,11.23
2023-03-30T14:19:26.652Z,11.14
2023-03-30T14:21:58.123Z,11.02
2023-03-30T14:24:35.307Z,10.94
2023-03-30T14:27:22.073Z,10.93
2023-03-30T14:29:51.281Z,10.91
2023-03-30T14:32:21.313Z,10.80
2023-03-30T14:34:52.812Z,10.77
2023-03-30T14:37:22.312Z,10.70
2023-03-30T14:39:54.896Z,10.67
2023-03-30T14:42:25.668Z,10.70
2023-03-30T14:44:55.590Z,10.73
2023-03-30T14:47:24.933Z,10.71
2023-03-30T14:49:58.612Z,10.70
2023-03-30T14:52:31.102Z,10.75
2023-03-30T14:55:08.021Z,10.70
2023-03-30T14:57:38.237Z,10.62
2023-03-30T15:00:26.403Z,10.55
2023-03-30T15:02:57.008Z,10.43
2023-03-30T15:05:26.756Z,10.38
2023-03-30T15:07:53.703Z,10.33
2023-03-30T15:10:23.269Z,10.33
2023-03-30T15:12:50.805Z,10.32
2023-03-30T15:15:24.768Z,10.35
2023-03-30T15:17:51.602Z,10.35
2023-03-30T15:20:18.756Z,10.28
2023-03-30T15:22:48.410Z,10.26
2023-03-30T15:25:28.794Z,10.31
2023-03-30T15:28:13.458Z,10.29
2023-03-30T15:30:43.895Z,10.25
2023-03-30T15:33:35.106Z,10.21
2023-03-30T15:36:17.596Z,10.20
2023-03-30T15:38:51.790Z,10.27
2023-03-30T15:41:22.300Z,10.19
2023-03-30T15:43:54.400Z,10.18
2023-03-30T15:46:21.506Z,10.23
2023-03-30T15:48:50.698Z,10.19
2023-03-30T15:51:32.983Z,10.16
2023-03-30T15:54:03.179Z,10.19
2023-03-30T15:56:40.379Z,10.17
2023-03-30T15:59:14.614Z,10.18
2023-03-30T16:01:51.277Z,10.18
2023-03-30T16:04:20.721Z,10.18
2023-03-30T16:06:47.862Z,10.16
2023-03-30T16:09:16.023Z,10.15
2023-03-30T16:11:45.061Z,10.20
2023-03-30T16:14:15.354Z,10.25
2023-03-30T16:16:41.875Z,10.22
2023-03-30T16:19:13.089Z,10.22
2023-03-30T16:21:40.858Z,10.26
2023-03-30T16:24:08.158Z,10.23
2023-03-30T16:26:34.998Z,10.29
2023-03-30T16:29:01.910Z,10.30
2023-03-30T16:31:28.555Z,10.35
2023-03-30T16:33:55.159Z,10.42
2023-03-30T16:36:24.605Z,10.41
2023-03-30T16:38:51.179Z,10.44
2023-03-30T16:41:20.446Z,10.44
2023-03-30T16:43:47.287Z,10.48
2023-03-30T16:46:18.731Z,10.47
2023-03-30T16:48:46.307Z,10.45
2023-03-30T16:51:15.444Z,10.50
2023-03-30T16:53:42.403Z,10.52
2023-03-30T16:56:27.562Z,10.64
2023-03-30T16:58:54.042Z,10.75
2023-03-30T17:01:20.690Z,10.79
2023-03-30T17:03:47.295Z,10.79
2023-03-30T17:06:14.208Z,10.83
2023-03-30T17:08:42.914Z,10.82
2023-03-30T17:11:10.747Z,10.80
2023-03-30T17:13:37.249Z,10.80
2023-03-30T17:16:03.875Z,10.74
2023-03-30T17:18:30.667Z,10.57
2023-03-30T17:20:59.484Z,10.58
2023-03-30T17:23:28.794Z,10.56
2023-03-30T17:25:57.466Z,10.45
2023-03-30T17:28:28.209Z,10.43
2023-03-30T17:30:57.128Z,10.43
2023-03-30T17:33:23.792Z,10.35
2023-03-30T17:35:54.652Z,10.32
2023-03-30T17:38:21.950Z,10.27
2023-03-30T17:40:48.801Z,10.23
2023-03-30T17:43:15.713Z,10.20
2023-03-30T17:45:42.551Z,10.20
2023-03-30T17:48:20.041Z,10.12
2023-03-30T17:50:49.437Z,10.12
2023-03-30T17:53:20.769Z,10.10
2023-03-30T17:55:49.923Z,10.01
2023-03-30T17:58:18.854Z,10.03
2023-03-30T18:00:46.971Z,10.04
2023-03-30T18:03:15.778Z,10.05
2023-03-30T18:05:44.256Z,9.98
2023-03-30T18:08:14.661Z,9.94
2023-03-30T18:10:41.226Z,9.87
2023-03-30T18:13:07.783Z,9.74
2023-03-30T18:15:34.501Z,9.68
2023-03-30T18:18:01.302Z,9.61
2023-03-30T18:20:40.606Z,9.57
2023-03-30T18:23:07.785Z,9.46
2023-03-30T18:25:34.605Z,9.40
2023-03-30T18:28:01.666Z,9.31
2023-03-30T18:30:29.968Z,9.29
2023-03-30T18:32:57.528Z,9.22
2023-03-30T18:35:26.592Z,9.26
2023-03-30T18:37:54.012Z,9.24
2023-03-30T18:40:41.904Z,9.21
2023-03-30T18:43:08.447Z,9.26
2023-03-30T18:45:41.029Z,9.29
2023-03-30T18:48:11.231Z,9.35
2023-03-30T18:50:40.127Z,9.39
2023-03-30T18:53:11.208Z,9.28
2023-03-30T18:55:39.587Z,9.33
2023-03-30T18:58:13.341Z,9.31
2023-03-30T19:00:39.875Z,9.24
2023-03-30T19:03:06.548Z,9.15
2023-03-30T19:05:34.209Z,9.06
2023-03-30T19:08:01.350Z,9.06
2023-03-30T19:10:35.853Z,9.04
2023-03-30T19:13:02.411Z,9.08
2023-03-30T19:15:32.969Z,9.26
2023-03-30T19:18:01.067Z,9.40
2023-03-30T19:20:29.439Z,9.43
2023-03-30T19:22:56.280Z,9.41
2023-03-30T19:25:24.801Z,9.42
2023-03-30T19:28:02.558Z,9.37
2023-03-30T19:30:32.272Z,9.23
2023-03-30T19:33:02.032Z,9.09
2023-03-30T19:35:29.472Z,9.01
2023-03-30T19:37:56.118Z,9.03
2023-03-30T19:40:23.696Z,9.06
2023-03-30T19:42:50.868Z,8.98
2023-03-30T19:45:19.907Z,8.94
2023-03-30T19:47:46.473Z,8.89
2023-03-30T19:50:16.837Z,8.89
2023-03-30T19:52:43.788Z,8.78
2023-03-30T19:55:10.826Z,8.69
2023-03-30T19:57:37.946Z,8.72
2023-03-30T20:00:12.472Z,8.71
2023-03-30T20:02:41.102Z,8.78
2023-03-30T20:05:10.071Z,8.88
2023-03-30T20:07:37.567Z,9.02
2023-03-30T20:10:05.665Z,9.01
2023-03-30T20:12:33.173Z,8.95
2023-03-30T20:15:00.708Z,8.99
2023-03-30T20:17:30.804Z,9.06
2023-03-30T20:20:07.184Z,9.03
2023-03-30T20:22:39.224Z,9.07
2023-03-30T20:25:07.892Z,9.10
2023-03-30T20:27:35.355Z,9.13
2023-03-30T20:30:03.571Z,9.15
2023-03-30T20:32:30.258Z,9.15
2023-03-30T20:34:56.956Z,9.19
2023-03-30T20:37:23.496Z,9.32
2023-03-30T20:39:50.561Z,9.34
2023-03-30T20:42:18.371Z,9.39
2023-03-30T20:44:50.011Z,9.42
2023-03-30T20:47:17.748Z,9.52
2023-03-30T20:49:46.316Z,9.52
2023-03-30T20:52:13.175Z,9.51
2023-03-30T20:54:41.146Z,9.47
2023-03-30T20:57:07.845Z,9.48
2023-03-30T20:59:34.477Z,9.44
2023-03-30T21:02:01.006Z,9.46
2023-03-30T21:04:27.893Z,9.46
2023-03-30T21:06:54.773Z,9.44
2023-03-30T21:09:21.396Z,9.51
2023-03-30T21:11:47.870Z,9.57
2023-03-30T21:14:14.423Z,9.68
2023-03-30T21:16:43.754Z,9.75
2023-03-30T21:19:11.643Z,9.76
2023-03-30T21:21:38.554Z,9.65
2023-03-30T21:24:06.561Z,9.53
2023-03-30T21:26:33.223Z,9.44
2023-03-30T21:28:59.976Z,9.31
2023-03-30T21:31:26.746Z,9.19
2023-03-30T21:33:53.747Z,9.25
2023-03-30T21:36:20.453Z,9.10
2023-03-30T21:38:46.994Z,8.94
2023-03-30T21:41:24.258Z,8.80
2023-03-30T21:43:51.013Z,8.73
2023-03-30T21:46:20.646Z,8.68
2023-03-30T21:48:51.170Z,8.61
2023-03-30T21:51:27.897Z,8.53
2023-03-30T21:53:55.874Z,8.47
2023-03-30T21:56:24.172Z,8.40
2023-03-30T21:58:51.031Z,8.31
2023-03-30T22:01:19.187Z,8.20
2023-03-30T22:03:46.269Z,8.07
2023-03-30T22:06:14.554Z,7.95
2023-03-30T22:08:41.168Z,7.85
2023-03-30T22:11:11.702Z,7.76
2023-03-30T22:13:38.236Z,7.63
2023-03-30T22:16:16.870Z,7.53
2023-03-30T22:18:44.228Z,7.43
2023-03-30T22:21:15.642Z,7.35
2023-03-30T22:23:42.185Z,7.27
2023-03-30T22:26:09.259Z,7.21
2023-03-30T22:28:36.184Z,7.11
2023-03-30T22:31:07.096Z,7.01
2023-03-30T22:33:33.929Z,6.93
2023-03-30T22:36:03.092Z,6.90
2023-03-30T22:38:31.280Z,6.87
2023-03-30T22:41:07.929Z,6.78
2023-03-30T22:43:35.825Z,6.72
2023-03-30T22:46:03.249Z,6.62
2023-03-30T22:48:30.406Z,6.55
2023-03-30T22:51:02.086Z,6.48
2023-03-30T22:53:32.793Z,6.44
2023-03-30T22:56:00.597Z,6.39
2023-03-30T22:58:27.424Z,6.38
2023-03-30T23:00:59.713Z,6.37
2023-03-30T23:03:26.423Z,6.34
2023-03-30T23:05:53.146Z,6.32
2023-03-30T23:08:20.016Z,6.28
2023-03-30T23:10:46.500Z,6.28
2023-03-30T23:13:14.051Z,6.26
2023-03-30T23:15:40.759Z,6.23
2023-03-30T23:18:07.827Z,6.24
2023-03-30T23:20:34.545Z,6.23
2023-03-30T23:23:01.141Z,6.20
2023-03-30T23:25:27.626Z,6.18
2023-03-30T23:27:54.115Z,6.18
2023-03-30T23:30:20.728Z,6.14
2023-03-30T23:32:47.308Z,6.13
2023-03-30T23:35:13.935Z,6.13
2023-03-30T23:37:40.979Z,6.11
2023-03-30T23:40:08.405Z,6.09
2023-03-30T23:42:35.039Z,6.02
2023-03-30T23:45:01.660Z,5.96
2023-03-30T23:47:28.400Z,5.96
2023-03-30T23:49:55.145Z,5.95
2023-03-30T23:52:21.692Z,5.94
2023-03-30T23:54:52.217Z,5.92
2023-03-30T23:57:19.995Z,5.88
2023-03-30T23:59:46.900Z,5.87
